Time;durP1;ratioP1;P1;durP2;ratioP2;P2;SDS_P1;SDS_P2;PMS_P1;PMS_P2;Temp;Humidity;BMP_temperature;BMP_pressure;BME280_temperature;BME280_humidity;BME280_pressure;Samples;Min_cycle;Max_cycle;Signal;HPM_P1;HPM_P2
2022/05/09 00:00:36;;;;;;;3.67;0.90;;;23.30;40.70;;;;;;5041692;27;91811;-65
2022/05/09 00:03:04;;;;;;;4.43;1.10;;;23.20;40.60;;;;;;5041880;28;89568;-65
2022/05/09 00:05:32;;;;;;;4.07;0.97;;;23.20;40.60;;;;;;5042015;27;88258;-66
2022/05/09 00:08:01;;;;;;;3.10;0.93;;;23.20;40.60;;;;;;5041627;27;88627;-66
2022/05/09 00:10:29;;;;;;;0.70;0.70;;;23.20;40.60;;;;;;5040974;27;90685;-65
2022/05/09 00:12:57;;;;;;;5.10;1.10;;;23.20;40.60;;;;;;5041578;27;88953;-65
2022/05/09 00:15:25;;;;;;;1.10;0.70;;;23.20;40.60;;;;;;5041979;28;88312;-66
2022/05/09 00:17:53;;;;;;;1.37;1.03;;;23.20;40.60;;;;;;5041806;27;88429;-65
2022/05/09 00:20:22;;;;;;;0.63;0.57;;;23.20;40.50;;;;;;5041739;28;89312;-65
2022/05/09 00:22:51;;;;;;;0.90;0.70;;;23.20;40.50;;;;;;5041529;27;89821;-65
2022/05/09 00:25:21;;;;;;;2.23;0.93;;;23.20;40.50;;;;;;5042235;27;88312;-65
2022/05/09 00:27:49;;;;;;;2.37;0.93;;;23.20;40.50;;;;;;5041126;28;88384;-66
2022/05/09 00:30:18;;;;;;;3.73;0.80;;;23.10;40.30;;;;;;5041496;27;90697;-65
2022/05/09 00:32:46;;;;;;;2.63;0.80;;;23.20;40.40;;;;;;5041593;28;88889;-65
2022/05/09 00:35:14;;;;;;;2.60;0.87;;;23.20;40.40;;;;;;5031800;28;88392;-65
2022/05/09 00:37:43;;;;;;;1.33;0.80;;;23.10;40.90;;;;;;5032079;28;88388;-65
2022/05/09 00:40:13;;;;;;;2.40;1.17;;;23.10;40.20;;;;;;5023292;27;90554;-65
2022/05/09 00:42:46;;;;;;;4.23;1.10;;;23.10;40.20;;;;;;5024234;28;89058;-65
2022/05/09 00:45:14;;;;;;;1.87;0.87;;;23.10;40.20;;;;;;5041937;28;88530;-65
2022/05/09 00:47:42;;;;;;;2.23;1.00;;;23.00;40.10;;;;;;5042141;27;88644;-65
2022/05/09 00:50:11;;;;;;;2.73;0.87;;;23.00;40.10;;;;;;5041477;27;89721;-65
2022/05/09 00:52:41;;;;;;;1.90;0.63;;;22.90;40.00;;;;;;5041205;27;89040;-65
2022/05/09 00:55:12;;;;;;;0.63;0.60;;;22.90;40.10;;;;;;5037178;28;88411;-65
2022/05/09 00:57:43;;;;;;;1.27;0.80;;;22.90;40.00;;;;;;5021756;28;88683;-66
2022/05/09 01:00:15;;;;;;;2.00;1.00;;;22.90;40.10;;;;;;5022814;28;92513;-65
2022/05/09 01:02:46;;;;;;;2.37;1.10;;;22.90;40.00;;;;;;5036489;28;90013;-65
2022/05/09 01:05:15;;;;;;;1.60;0.93;;;22.80;40.00;;;;;;5035797;27;88531;-66
2022/05/09 01:07:43;;;;;;;1.40;0.77;;;22.90;40.10;;;;;;5022187;28;88477;-65
2022/05/09 01:10:12;;;;;;;3.80;0.90;;;22.90;40.10;;;;;;5030413;28;89238;-65
2022/05/09 01:12:40;;;;;;;1.73;0.70;;;22.90;40.10;;;;;;5039381;27;91436;-65
2022/05/09 01:15:12;;;;;;;0.80;0.80;;;22.90;40.10;;;;;;5035333;27;89327;-65
2022/05/09 01:17:41;;;;;;;3.17;0.87;;;22.90;40.00;;;;;;5022410;28;88490;-65
2022/05/09 01:20:11;;;;;;;1.00;0.60;;;23.00;40.10;;;;;;5037364;27;89838;-65
2022/05/09 01:22:41;;;;;;;0.60;0.43;;;23.00;40.10;;;;;;5040140;28;92774;-65
2022/05/09 01:25:10;;;;;;;2.53;0.60;;;22.90;39.90;;;;;;5028549;28;88490;-65
2022/05/09 01:27:40;;;;;;;2.83;1.03;;;22.90;39.90;;;;;;5025847;28;89026;-65
2022/05/09 01:30:10;;;;;;;3.30;0.90;;;22.90;39.90;;;;;;5024920;28;89611;-65
2022/05/09 01:32:41;;;;;;;1.20;0.73;;;22.90;40.00;;;;;;5023467;28;89114;-66
2022/05/09 01:35:16;;;;;;;10.20;1.30;;;22.90;40.00;;;;;;5033996;28;88436;-66
2022/05/09 01:37:47;;;;;;;2.77;0.87;;;22.90;39.90;;;;;;5038339;28;88518;-66
2022/05/09 01:40:15;;;;;;;5.60;0.97;;;22.90;39.90;;;;;;5039079;28;92523;-65
2022/05/09 01:42:43;;;;;;;2.00;0.70;;;22.90;39.90;;;;;;5041005;27;92702;-65
2022/05/09 01:45:12;;;;;;;1.33;1.07;;;22.80;39.80;;;;;;5038453;28;88994;-65
2022/05/09 01:50:32;;;;;;;2.70;0.90;;;22.80;39.70;;;;;;4985651;27;89357;-65
2022/05/09 01:53:01;;;;;;;1.20;0.60;;;22.80;39.70;;;;;;5044211;27;89958;-65
2022/05/09 01:55:29;;;;;;;0.60;0.60;;;22.80;39.70;;;;;;5042935;27;88539;-65
2022/05/09 01:57:58;;;;;;;2.70;0.87;;;22.90;39.90;;;;;;5025599;28;88739;-66
2022/05/09 02:00:26;;;;;;;3.30;0.90;;;22.90;39.90;;;;;;5031738;27;90423;-65
2022/05/09 02:02:54;;;;;;;2.70;1.17;;;22.80;39.70;;;;;;5024253;27;88875;-66
2022/05/09 02:05:22;;;;;;;2.80;0.90;;;22.80;39.70;;;;;;5041246;28;88602;-65
2022/05/09 02:07:50;;;;;;;0.90;0.60;;;22.80;39.70;;;;;;5025463;28;88526;-65
2022/05/09 02:10:20;;;;;;;3.30;0.80;;;22.70;39.60;;;;;;5025270;28;91101;-66
2022/05/09 02:12:48;;;;;;;1.17;1.00;;;22.70;39.70;;;;;;5025497;28;90069;-65
2022/05/09 02:15:15;;;;;;;1.57;1.10;;;22.60;39.60;;;;;;5025348;28;88360;-65
2022/05/09 02:17:45;;;;;;;1.80;0.60;;;22.60;39.60;;;;;;5029259;28;88890;-65
2022/05/09 02:20:13;;;;;;;5.10;1.00;;;22.60;39.60;;;;;;5032835;28;92795;-65
2022/05/09 02:22:41;;;;;;;1.13;0.90;;;22.60;39.60;;;;;;5043537;27;90050;-65
2022/05/09 02:27:53;;;;;;;2.80;1.17;;;22.60;39.50;;;;;;5038560;27;88899;-65
2022/05/09 02:30:21;;;;;;;4.90;0.83;;;22.60;39.50;;;;;;5041967;27;89810;-65
2022/05/09 02:32:49;;;;;;;3.23;0.90;;;22.60;39.40;;;;;;5027801;28;93078;-65
2022/05/09 02:35:18;;;;;;;1.13;0.60;;;22.60;39.40;;;;;;5023267;28;88383;-65
2022/05/09 02:37:46;;;;;;;3.50;1.03;;;22.50;39.30;;;;;;5031821;28;88604;-65
2022/05/09 02:40:14;;;;;;;3.90;0.93;;;22.50;39.30;;;;;;5024326;28;91697;-65
2022/05/09 02:42:42;;;;;;;1.40;0.70;;;22.50;39.30;;;;;;5027787;27;91118;-65
2022/05/09 02:45:12;;;;;;;2.00;0.60;;;22.50;39.30;;;;;;5038099;27;88431;-65
2022/05/09 02:47:40;;;;;;;3.53;0.83;;;22.60;39.40;;;;;;5032339;28;88585;-65
2022/05/09 02:50:09;;;;;;;2.10;1.10;;;22.60;39.40;;;;;;5033889;27;91007;-65
2022/05/09 02:52:37;;;;;;;1.33;0.70;;;22.60;39.30;;;;;;5022806;28;88691;-65
2022/05/09 02:55:06;;;;;;;1.07;0.50;;;22.60;39.30;;;;;;5041697;27;88485;-65
2022/05/09 02:57:34;;;;;;;1.90;0.70;;;22.60;39.30;;;;;;5036961;27;88667;-65
2022/05/09 03:00:02;;;;;;;0.87;0.70;;;22.60;40.00;;;;;;5027632;28;89578;-66
2022/05/09 03:02:32;;;;;;;2.53;1.03;;;22.60;39.30;;;;;;5040433;28;90605;-65
2022/05/09 03:04:59;;;;;;;1.67;0.63;;;22.60;39.30;;;;;;5040791;27;88591;-65
2022/05/09 03:07:28;;;;;;;3.43;0.97;;;22.60;39.30;;;;;;5042694;28;88329;-66
2022/05/09 03:09:56;;;;;;;1.33;0.63;;;22.60;39.30;;;;;;5031653;28;90613;-65
2022/05/09 03:12:24;;;;;;;2.23;0.90;;;22.60;39.30;;;;;;5042486;28;90026;-65
2022/05/09 03:14:52;;;;;;;1.57;0.93;;;22.60;39.30;;;;;;5040379;28;88520;-66
2022/05/09 03:17:21;;;;;;;1.30;1.10;;;22.60;39.30;;;;;;5026916;27;88613;-65
2022/05/09 03:19:50;;;;;;;4.47;1.03;;;22.60;39.30;;;;;;5039409;27;89396;-66
2022/05/09 03:22:18;;;;;;;4.10;1.10;;;22.60;39.30;;;;;;5042429;27;89763;-66
2022/05/09 03:24:48;;;;;;;6.73;1.80;;;22.60;39.30;;;;;;5042035;28;88773;-66
2022/05/09 03:27:16;;;;;;;1.87;1.00;;;22.60;39.30;;;;;;5041333;28;88649;-70
2022/05/09 03:29:44;;;;;;;3.20;1.07;;;22.60;39.30;;;;;;5039889;28;90689;-70
2022/05/09 03:32:12;;;;;;;3.10;1.40;;;22.60;39.30;;;;;;5039140;27;89194;-69
2022/05/09 03:34:40;;;;;;;3.70;1.40;;;22.60;39.30;;;;;;5027088;27;88793;-70
2022/05/09 03:37:10;;;;;;;4.83;1.57;;;22.60;39.30;;;;;;5022476;28;88582;-70
2022/05/09 03:39:38;;;;;;;2.77;1.83;;;22.60;39.40;;;;;;5041239;28;90693;-70
2022/05/09 03:42:07;;;;;;;7.23;3.07;;;22.60;39.40;;;;;;5041858;27;89953;-71
2022/05/09 03:44:35;;;;;;;4.73;2.37;;;22.60;39.40;;;;;;5030463;28;88482;-70
2022/05/09 03:47:03;;;;;;;4.87;3.17;;;22.60;39.40;;;;;;5023970;28;88397;-71
2022/05/09 03:49:31;;;;;;;5.77;4.07;;;22.60;39.40;;;;;;5028911;28;89480;-70
2022/05/09 03:51:59;;;;;;;10.43;4.60;;;22.60;39.40;;;;;;5029672;27;88690;-70
2022/05/09 03:54:29;;;;;;;11.00;6.17;;;22.50;39.30;;;;;;5033040;28;88450;-71
2022/05/09 03:56:57;;;;;;;11.77;6.70;;;22.50;39.30;;;;;;5026147;28;88400;-71
2022/05/09 03:59:25;;;;;;;15.47;6.53;;;22.50;39.30;;;;;;5037211;28;89538;-70
2022/05/09 04:01:53;;;;;;;13.17;7.23;;;22.50;39.20;;;;;;5040659;28;90028;-71
2022/05/09 04:04:21;;;;;;;15.00;8.73;;;22.50;39.90;;;;;;5040093;27;88388;-70
2022/05/09 04:06:51;;;;;;;18.83;9.47;;;22.50;39.30;;;;;;5038644;28;88520;-70
2022/05/09 04:09:19;;;;;;;13.83;8.07;;;22.50;39.30;;;;;;5040196;28;92516;-70
2022/05/09 04:11:50;;;;;;;12.97;6.97;;;22.60;39.40;;;;;;5042533;28;90418;-70
2022/05/09 04:16:49;;;;;;;14.43;8.90;;;22.50;39.30;;;;;;5031818;27;88270;-70
2022/05/09 04:17:05;;;;;;;17.73;9.57;;;22.50;39.30;;;;;;5033385;28;88633;-70
2022/05/09 04:19:33;;;;;;;12.87;7.33;;;22.50;39.30;;;;;;5041585;28;90714;-70
2022/05/09 04:22:02;;;;;;;12.87;6.70;;;22.50;39.30;;;;;;5039038;27;89107;-70
2022/05/09 04:24:30;;;;;;;12.77;6.37;;;22.50;39.30;;;;;;5040425;28;88256;-70
2022/05/09 04:27:00;;;;;;;14.30;7.90;;;22.50;39.20;;;;;;5040398;27;88610;-70
2022/05/09 04:29:28;;;;;;;10.73;5.90;;;22.50;39.30;;;;;;5041854;27;89768;-70
2022/05/09 04:31:56;;;;;;;9.97;6.00;;;22.60;39.30;;;;;;5038030;27;90121;-70
2022/05/09 04:34:25;;;;;;;10.63;5.20;;;22.50;39.20;;;;;;5032795;28;88410;-70
2022/05/09 04:36:55;;;;;;;7.03;4.77;;;22.50;39.10;;;;;;5034439;27;88351;-70
2022/05/09 04:39:23;;;;;;;9.87;5.20;;;22.60;39.20;;;;;;5024019;28;90745;-68
2022/05/09 04:41:51;;;;;;;13.80;4.90;;;22.60;39.10;;;;;;5026011;28;93127;-68
2022/05/09 04:44:22;;;;;;;8.63;5.20;;;22.70;39.80;;;;;;5037459;28;88326;-69
2022/05/09 04:46:50;;;;;;;7.50;3.77;;;22.70;39.00;;;;;;5024940;27;88603;-68
2022/05/09 04:49:18;;;;;;;6.47;3.73;;;22.80;39.10;;;;;;5022163;28;90778;-70
2022/05/09 04:51:46;;;;;;;9.20;4.20;;;22.90;39.10;;;;;;5026988;28;90205;-70
2022/05/09 04:54:14;;;;;;;7.90;4.03;;;23.00;39.30;;;;;;5032794;28;88567;-71
2022/05/09 04:56:42;;;;;;;8.00;3.50;;;23.00;39.30;;;;;;5025608;27;88686;-70
2022/05/09 04:59:10;;;;;;;5.73;2.80;;;23.10;39.40;;;;;;5039389;28;89480;-71
2022/05/09 05:01:40;;;;;;;5.93;2.90;;;23.30;39.50;;;;;;5028819;28;89619;-72
2022/05/09 05:04:10;;;;;;;5.50;3.30;;;23.50;39.30;;;;;;5040033;27;88480;-72
2022/05/09 05:06:38;;;;;;;7.03;2.53;;;23.60;39.20;;;;;;5021222;28;88473;-71
2022/05/09 05:09:06;;;;;;;7.57;3.00;;;23.70;39.10;;;;;;5020863;28;90632;-72
2022/05/09 05:11:35;;;;;;;3.37;2.53;;;23.70;39.00;;;;;;5021262;28;88530;-68
2022/05/09 05:14:03;;;;;;;6.53;2.87;;;23.60;38.90;;;;;;5032585;28;88396;-68
2022/05/09 05:19:14;;;;;;;4.97;2.07;;;23.60;38.90;;;;;;5036461;28;91241;-71
2022/05/09 05:21:43;;;;;;;6.23;2.20;;;23.50;38.90;;;;;;5022455;28;90187;-72
2022/05/09 05:24:13;;;;;;;4.40;2.20;;;23.50;38.90;;;;;;5021768;28;88191;-72
2022/05/09 05:26:41;;;;;;;11.07;2.00;;;23.50;38.90;;;;;;5021277;28;88589;-72
2022/05/09 05:29:09;;;;;;;3.03;1.87;;;23.40;38.80;;;;;;5020882;28;91159;-72
2022/05/09 05:31:43;;;;;;;4.67;2.23;;;23.40;38.80;;;;;;5020605;28;88340;-72
2022/05/09 05:34:11;;;;;;;4.97;2.10;;;23.30;38.70;;;;;;5020770;28;88367;-72
2022/05/09 05:36:41;;;;;;;2.97;1.80;;;23.20;39.30;;;;;;5028620;28;88515;-72
2022/05/09 05:39:13;;;;;;;3.07;1.93;;;23.20;38.70;;;;;;5040890;27;90431;-72
2022/05/09 05:41:41;;;;;;;1.87;1.50;;;23.10;38.60;;;;;;5031505;28;89266;-72
2022/05/09 05:44:11;;;;;;;3.07;1.60;;;23.20;38.70;;;;;;5021115;28;88543;-72
2022/05/09 05:46:40;;;;;;;4.60;1.30;;;23.20;38.70;;;;;;5020787;28;88479;-72
2022/05/09 05:49:08;;;;;;;4.30;1.70;;;23.20;38.70;;;;;;5020907;28;89571;-72
2022/05/09 05:51:37;;;;;;;3.00;1.20;;;23.10;38.60;;;;;;5020984;28;88691;-72
2022/05/09 05:54:06;;;;;;;3.40;1.50;;;23.10;38.50;;;;;;5030761;28;88334;-72
2022/05/09 05:56:37;;;;;;;2.77;1.50;;;23.10;38.50;;;;;;5040286;27;88637;-71
2022/05/09 05:59:09;;;;;;;2.60;1.40;;;23.10;38.50;;;;;;5039983;27;91760;-72
2022/05/09 06:01:37;;;;;;;4.30;1.70;;;23.10;39.20;;;;;;5035911;27;88919;-72
2022/05/09 06:04:07;;;;;;;3.17;1.37;;;23.00;38.40;;;;;;5041046;27;88410;-72
2022/05/09 06:06:35;;;;;;;3.40;1.37;;;23.00;38.40;;;;;;5061389;27;88641;-71
2022/05/09 06:09:03;;;;;;;2.53;1.60;;;23.10;38.50;;;;;;5026951;27;91476;-72
2022/05/09 06:11:32;;;;;;;4.97;1.60;;;23.00;39.10;;;;;;5043745;27;88794;-72
2022/05/09 06:14:03;;;;;;;2.00;1.00;;;23.10;38.50;;;;;;5064133;27;89117;-72
2022/05/09 06:16:32;;;;;;;4.23;1.23;;;23.10;38.50;;;;;;5058066;27;88516;-72
2022/05/09 06:19:00;;;;;;;4.67;2.03;;;23.20;38.50;;;;;;5044133;27;90119;-72
2022/05/09 06:21:29;;;;;;;3.07;0.93;;;23.20;38.50;;;;;;5043973;27;89415;-72
2022/05/09 06:23:58;;;;;;;2.37;1.40;;;23.20;38.50;;;;;;5024976;27;88630;-72
2022/05/09 06:26:27;;;;;;;4.87;1.33;;;23.20;38.50;;;;;;5023403;27;88625;-68
2022/05/09 06:28:57;;;;;;;2.10;0.90;;;23.20;38.50;;;;;;5023125;28;89976;-68
2022/05/09 06:31:26;;;;;;;1.10;1.00;;;23.20;38.50;;;;;;5033849;28;89014;-68
2022/05/09 06:33:54;;;;;;;2.87;1.30;;;23.30;38.60;;;;;;5043261;27;88364;-68
2022/05/09 06:36:28;;;;;;;3.27;1.27;;;23.30;38.60;;;;;;5043466;27;88535;-68
2022/05/09 06:38:57;;;;;;;3.17;1.23;;;23.30;38.50;;;;;;5041366;27;90847;-72
2022/05/09 06:41:25;;;;;;;2.57;1.00;;;23.30;38.50;;;;;;5043201;27;91318;-72
2022/05/09 06:43:53;;;;;;;1.20;0.90;;;23.30;38.50;;;;;;5043425;27;88262;-72
2022/05/09 06:46:22;;;;;;;3.10;1.10;;;23.30;38.50;;;;;;5043845;28;88273;-72
2022/05/09 06:48:51;;;;;;;2.33;1.40;;;23.30;38.50;;;;;;5043243;27;89538;-72
2022/05/09 06:51:19;;;;;;;4.17;1.50;;;23.40;38.70;;;;;;5043408;27;88916;-72
2022/05/09 06:53:50;;;;;;;2.77;1.47;;;23.30;38.50;;;;;;5038544;27;88784;-72
2022/05/09 06:56:18;;;;;;;2.40;1.03;;;23.30;38.50;;;;;;5039941;27;88526;-72
2022/05/09 06:58:46;;;;;;;4.90;1.50;;;23.30;38.50;;;;;;5023012;28;90510;-73
2022/05/09 07:01:15;;;;;;;2.47;1.50;;;23.30;38.50;;;;;;5042228;28;91803;-72
2022/05/09 07:03:45;;;;;;;6.07;1.43;;;23.40;38.60;;;;;;5042693;27;88531;-72
2022/05/09 07:06:12;;;;;;;2.80;1.20;;;23.30;38.50;;;;;;5023869;28;88552;-72
2022/05/09 07:08:42;;;;;;;3.80;1.30;;;23.40;38.70;;;;;;5022433;28;90697;-73
2022/05/09 07:11:12;;;;;;;3.47;1.27;;;23.30;39.00;;;;;;5022559;28;90066;-72
2022/05/09 07:13:50;;;;;;;3.60;1.23;;;23.40;39.50;;;;;;5031159;28;88389;-72
2022/05/09 07:16:18;;;;;;;2.83;2.07;;;23.50;39.90;;;;;;5040188;28;88412;-72
2022/05/09 07:18:47;;;;;;;1.17;1.07;;;23.50;40.20;;;;;;5041847;27;89653;-72
2022/05/09 07:21:15;;;;;;;2.47;1.37;;;23.50;40.40;;;;;;5042935;27;90000;-72
2022/05/09 07:23:43;;;;;;;2.80;1.30;;;23.50;40.50;;;;;;5042802;27;88522;-72
2022/05/09 07:26:11;;;;;;;3.87;1.00;;;23.50;40.60;;;;;;5043029;28;88357;-70
2022/05/09 07:28:44;;;;;;;1.20;0.70;;;23.50;40.70;;;;;;5042966;28;92531;-75
2022/05/09 07:31:13;;;;;;;1.23;1.13;;;23.50;40.80;;;;;;5034024;27;90295;-74
2022/05/09 07:33:42;;;;;;;3.63;1.47;;;23.50;40.90;;;;;;5022091;27;88363;-74
2022/05/09 07:36:11;;;;;;;1.50;1.13;;;23.50;41.00;;;;;;5021935;28;88718;-74
2022/05/09 07:38:39;;;;;;;5.00;1.57;;;23.50;41.80;;;;;;5022368;28;89668;-75
2022/05/09 07:41:08;;;;;;;3.53;1.00;;;23.60;41.30;;;;;;5022546;28;92171;-74
2022/05/09 07:43:36;;;;;;;2.53;1.20;;;23.60;41.30;;;;;;5021735;28;88547;-74
2022/05/09 07:46:11;;;;;;;1.63;1.33;;;23.60;41.40;;;;;;5021995;28;88659;-74
2022/05/09 07:48:59;;;;;;;2.93;1.43;;;23.60;41.50;;;;;;5022649;27;89234;-73
2022/05/09 07:51:28;;;;;;;2.33;1.17;;;23.70;41.50;;;;;;5033312;27;88649;-74
2022/05/09 07:53:56;;;;;;;3.93;1.13;;;23.70;41.50;;;;;;5023229;27;88687;-74
2022/05/09 07:56:24;;;;;;;5.17;1.90;;;23.70;41.50;;;;;;5023711;28;88550;-74
2022/05/09 07:58:52;;;;;;;1.13;0.90;;;23.60;41.30;;;;;;5041640;27;90052;-74
2022/05/09 08:01:20;;;;;;;3.23;1.40;;;23.60;41.30;;;;;;5041663;27;89272;-74
2022/05/09 08:03:48;;;;;;;3.23;1.30;;;23.70;41.40;;;;;;5034598;28;88649;-74
2022/05/09 08:06:16;;;;;;;3.90;1.63;;;23.70;41.20;;;;;;5022142;27;88619;-74
2022/05/09 08:08:48;;;;;;;4.50;1.47;;;23.70;41.20;;;;;;5021904;28;89522;-65
2022/05/09 08:11:17;;;;;;;1.87;1.20;;;23.70;41.10;;;;;;5021860;28;90141;-65
2022/05/09 08:13:45;;;;;;;4.70;1.20;;;23.70;41.60;;;;;;5033174;27;88947;-65
2022/05/09 08:16:13;;;;;;;5.30;1.40;;;23.70;40.90;;;;;;5035125;27;89347;-68
2022/05/09 08:18:41;;;;;;;3.77;1.20;;;23.70;40.90;;;;;;5039022;27;88473;-65
2022/05/09 08:21:12;;;;;;;2.53;1.33;;;23.70;40.80;;;;;;5050043;27;92661;-66
2022/05/09 08:23:46;;;;;;;3.17;1.20;;;23.70;40.70;;;;;;5042313;27;88529;-65
2022/05/09 08:26:15;;;;;;;3.90;1.47;;;23.70;40.60;;;;;;5031651;27;88607;-65
2022/05/09 08:28:46;;;;;;;1.13;0.93;;;23.70;40.50;;;;;;5048065;27;88312;-66
2022/05/09 08:31:18;;;;;;;5.97;1.50;;;23.70;40.40;;;;;;5061537;27;90026;-66
2022/05/09 08:33:47;;;;;;;3.30;1.20;;;23.60;40.20;;;;;;5062056;27;88322;-66
2022/05/09 08:36:45;;;;;;;3.40;1.20;;;23.60;40.10;;;;;;5060054;27;88519;-66
2022/05/09 08:39:05;;;;;;;2.47;1.50;;;23.60;40.10;;;;;;5037211;28;90616;-66
2022/05/09 08:41:41;;;;;;;1.10;1.00;;;23.50;39.90;;;;;;5037889;27;90067;-66
2022/05/09 08:44:17;;;;;;;7.83;1.27;;;23.50;40.00;;;;;;5038141;28;88522;-66
2022/05/09 08:46:47;;;;;;;2.10;0.90;;;23.50;40.00;;;;;;5040724;27;88662;-66
2022/05/09 08:49:28;;;;;;;2.03;1.30;;;23.50;39.90;;;;;;5041376;27;91834;-65
2022/05/09 08:51:59;;;;;;;4.40;1.50;;;23.50;39.90;;;;;;5040691;27;88833;-65
2022/05/09 08:54:29;;;;;;;5.87;1.40;;;23.60;40.00;;;;;;5041022;27;88447;-66
2022/05/09 08:56:58;;;;;;;3.93;1.10;;;23.60;40.00;;;;;;5041750;27;88602;-65
2022/05/09 08:59:28;;;;;;;1.17;0.80;;;23.60;39.90;;;;;;5041547;28;89316;-65
2022/05/09 09:01:59;;;;;;;1.43;0.90;;;23.60;39.90;;;;;;5040233;27;89473;-65
2022/05/09 09:04:30;;;;;;;2.13;1.20;;;23.60;39.90;;;;;;5040766;27;88491;-66
2022/05/09 09:07:18;;;;;;;2.17;0.90;;;23.60;39.80;;;;;;5040623;27;88871;-66
2022/05/09 09:10:03;;;;;;;1.13;1.00;;;23.60;39.80;;;;;;5047467;27;90582;-66
2022/05/09 09:12:37;;;;;;;1.77;0.73;;;23.60;39.80;;;;;;5036394;28;90021;-66
2022/05/09 09:15:08;;;;;;;2.40;1.10;;;23.60;39.80;;;;;;5046231;27;88553;-66
2022/05/09 09:17:58;;;;;;;2.53;1.10;;;23.60;39.70;;;;;;5044889;27;88529;-66
2022/05/09 09:20:28;;;;;;;2.60;0.80;;;23.60;39.70;;;;;;5043068;27;89683;-66
2022/05/09 09:23:08;;;;;;;2.03;1.10;;;23.60;39.60;;;;;;5043878;27;88371;-66
2022/05/09 09:25:42;;;;;;;0.93;0.83;;;23.60;39.60;;;;;;5039218;27;88711;-65
2022/05/09 09:28:12;;;;;;;3.57;0.90;;;23.60;39.70;;;;;;5053962;27;88893;-65
2022/05/09 09:30:40;;;;;;;0.87;0.83;;;23.60;39.70;;;;;;5041141;27;90293;-66
2022/05/09 09:33:10;;;;;;;2.87;0.90;;;23.70;39.80;;;;;;5038206;28;89921;-66
2022/05/09 09:35:50;;;;;;;2.07;0.80;;;23.70;39.80;;;;;;5040908;27;88352;-66
2022/05/09 09:38:23;;;;;;;3.37;0.77;;;23.70;39.80;;;;;;5026936;27;88488;-66
2022/05/09 09:40:52;;;;;;;1.43;1.10;;;23.80;39.80;;;;;;5053444;27;89617;-66
2022/05/09 09:43:20;;;;;;;2.40;0.83;;;23.80;39.70;;;;;;5039440;27;89479;-66
2022/05/09 09:46:01;;;;;;;3.70;0.90;;;23.90;39.80;;;;;;5040361;27;88388;-66
2022/05/09 09:48:31;;;;;;;1.13;0.80;;;23.90;39.80;;;;;;5043750;27;88644;-66
2022/05/09 09:51:03;;;;;;;1.07;0.60;;;23.80;39.70;;;;;;5044113;27;93044;-65
2022/05/09 09:53:37;;;;;;;1.00;0.70;;;23.80;39.60;;;;;;5043796;27;90379;-66
2022/05/09 09:56:12;;;;;;;0.90;0.70;;;23.90;39.70;;;;;;5044165;27;88412;-65
2022/05/09 09:58:40;;;;;;;0.87;0.80;;;23.90;39.70;;;;;;5044139;27;88642;-65
2022/05/09 10:01:11;;;;;;;0.53;0.53;;;23.80;39.50;;;;;;5043897;27;89758;-66
2022/05/09 10:03:40;;;;;;;1.10;0.57;;;23.90;39.60;;;;;;5056112;27;92730;-66
2022/05/09 10:06:16;;;;;;;2.87;1.10;;;23.90;39.50;;;;;;5064193;27;88394;-65
2022/05/09 10:08:44;;;;;;;1.70;0.70;;;23.90;39.40;;;;;;5063611;27;88872;-66
2022/05/09 10:11:22;;;;;;;2.10;0.70;;;23.90;39.40;;;;;;5046682;27;90555;-65
2022/05/09 10:13:51;;;;;;;3.83;0.67;;;23.90;39.30;;;;;;5049731;27;90354;-66
2022/05/09 10:16:25;;;;;;;1.77;0.50;;;23.90;39.10;;;;;;5064285;27;88852;-66
2022/05/09 10:18:54;;;;;;;2.13;0.97;;;23.90;39.10;;;;;;5049826;27;88578;-66
2022/05/09 10:27:13;;;;;;;2.40;0.77;;;24.00;39.10;;;;;;5031402;27;88425;-65
2022/05/09 10:29:41;;;;;;;1.00;1.00;;;24.00;38.90;;;;;;5050094;27;88609;-65
2022/05/09 10:32:10;;;;;;;0.83;0.80;;;24.00;38.90;;;;;;5043567;27;90667;-66
2022/05/09 10:34:43;;;;;;;3.17;0.50;;;24.00;38.90;;;;;;5050116;27;90903;-65
2022/05/09 10:37:17;;;;;;;0.73;0.60;;;24.00;39.60;;;;;;5063243;27;88545;-66
2022/05/09 10:39:48;;;;;;;1.07;0.67;;;24.00;38.90;;;;;;5047923;27;89555;-66
2022/05/09 10:42:32;;;;;;;1.97;1.10;;;24.10;38.90;;;;;;5057279;27;91983;-66
2022/05/09 10:45:04;;;;;;;0.90;0.70;;;24.10;38.90;;;;;;5023067;28;88783;-66
2022/05/09 10:47:37;;;;;;;0.90;0.60;;;24.10;38.80;;;;;;5024020;28;88538;-66
2022/05/09 10:50:10;;;;;;;0.50;0.50;;;24.20;38.90;;;;;;5023683;28;88657;-66
2022/05/09 10:52:41;;;;;;;3.03;0.73;;;24.20;38.80;;;;;;5036228;27;89922;-66
2022/05/09 10:55:13;;;;;;;2.93;1.00;;;24.20;38.80;;;;;;5042658;27;92190;-66
2022/05/09 10:57:45;;;;;;;0.83;0.83;;;24.30;38.80;;;;;;5042120;27;88526;-66
2022/05/09 11:00:18;;;;;;;1.50;0.70;;;24.30;38.80;;;;;;5041656;28;89045;-65
2022/05/09 11:02:54;;;;;;;1.60;0.53;;;24.30;38.80;;;;;;5027638;27;89506;-66
2022/05/09 11:05:23;;;;;;;3.47;0.80;;;24.30;38.80;;;;;;5045207;27;89180;-66
2022/05/09 11:07:53;;;;;;;2.03;0.70;;;24.40;38.80;;;;;;5039471;27;88641;-66
2022/05/09 11:10:26;;;;;;;1.97;0.80;;;24.40;38.80;;;;;;5023098;28;88424;-66
2022/05/09 11:13:12;;;;;;;2.33;0.90;;;24.40;38.80;;;;;;5023119;28;89857;-66
2022/05/09 11:15:47;;;;;;;3.07;0.80;;;24.40;38.70;;;;;;5022798;28;89461;-66
2022/05/09 11:18:26;;;;;;;1.23;0.80;;;24.50;38.80;;;;;;5023067;28;88555;-66
2022/05/09 11:21:01;;;;;;;0.90;0.70;;;24.50;38.80;;;;;;5029171;28;88507;-66
2022/05/09 11:23:32;;;;;;;1.43;0.60;;;24.50;38.70;;;;;;5042677;28;88355;-66
2022/05/09 11:26:13;;;;;;;1.37;0.90;;;24.50;38.70;;;;;;5042680;27;88931;-66
2022/05/09 11:28:55;;;;;;;1.53;0.77;;;24.50;38.60;;;;;;5043342;27;88395;-66
2022/05/09 11:31:27;;;;;;;1.90;0.93;;;24.50;38.50;;;;;;5042818;27;88667;-65
2022/05/09 11:34:02;;;;;;;1.97;0.80;;;24.60;38.60;;;;;;5042731;27;90529;-65
2022/05/09 11:36:40;;;;;;;0.60;0.60;;;24.60;39.30;;;;;;5042648;28;90018;-66
2022/05/09 11:39:11;;;;;;;2.10;0.70;;;24.60;38.60;;;;;;5040922;27;88509;-66
2022/05/09 11:41:42;;;;;;;2.37;0.87;;;24.60;38.50;;;;;;5023526;27;88468;-67
2022/05/09 11:44:14;;;;;;;1.50;0.90;;;24.60;38.50;;;;;;5042618;27;90337;-66
2022/05/09 11:46:55;;;;;;;1.53;1.03;;;24.70;38.50;;;;;;5041914;27;90359;-66
2022/05/09 11:49:32;;;;;;;4.43;0.80;;;24.70;38.40;;;;;;5042346;27;88598;-66
2022/05/09 11:52:01;;;;;;;0.60;0.50;;;24.70;38.30;;;;;;5042123;27;88622;-66
2022/05/09 11:54:31;;;;;;;1.27;0.77;;;24.80;38.40;;;;;;5056372;27;89956;-66
2022/05/09 11:57:04;;;;;;;1.47;0.80;;;24.80;38.40;;;;;;5039069;27;88513;-66
2022/05/09 11:59:35;;;;;;;1.70;0.90;;;24.80;38.30;;;;;;5055623;27;88552;-66
2022/05/09 12:02:04;;;;;;;0.83;0.60;;;24.80;38.30;;;;;;5041674;27;88564;-66
2022/05/09 12:04:40;;;;;;;1.23;0.90;;;24.80;38.20;;;;;;5046514;27;90484;-66
2022/05/09 12:07:43;;;;;;;0.53;0.47;;;24.90;38.30;;;;;;5040752;27;88723;-67
2022/05/09 12:10:19;;;;;;;2.00;0.90;;;24.90;38.20;;;;;;5040985;27;88640;-66
2022/05/09 12:12:54;;;;;;;1.27;0.50;;;24.90;38.20;;;;;;5038537;27;88592;-66
2022/05/09 12:16:01;;;;;;;1.20;0.93;;;24.90;38.20;;;;;;5022118;28;90586;-66
2022/05/09 12:18:31;;;;;;;1.77;0.60;;;24.90;38.20;;;;;;5021419;28;91951;-66
2022/05/09 12:21:15;;;;;;;2.43;1.00;;;25.00;38.20;;;;;;5019741;28;88573;-66
2022/05/09 12:23:52;;;;;;;1.10;0.80;;;25.00;38.10;;;;;;5024937;28;88764;-66
2022/05/09 12:26:28;;;;;;;1.13;0.73;;;25.00;38.00;;;;;;5048032;27;92747;-66
2022/05/09 12:29:25;;;;;;;1.73;0.77;;;25.00;38.00;;;;;;5060849;27;89350;-67
2022/05/09 12:31:56;;;;;;;1.70;1.00;;;25.00;38.00;;;;;;5021513;28;88306;-66
2022/05/09 12:34:27;;;;;;;1.80;0.87;;;25.00;38.00;;;;;;5031213;28;88494;-66
2022/05/09 12:36:55;;;;;;;2.87;0.70;;;25.10;38.10;;;;;;5041784;27;90959;-66
2022/05/09 12:39:28;;;;;;;1.70;0.90;;;25.10;38.00;;;;;;5046736;27;89433;-66
2022/05/09 12:41:57;;;;;;;0.70;0.70;;;25.10;38.00;;;;;;5031063;28;88448;-65
2022/05/09 12:44:26;;;;;;;0.70;0.70;;;25.20;38.00;;;;;;5040757;28;88550;-66
2022/05/09 12:46:57;;;;;;;0.53;0.53;;;25.20;38.70;;;;;;5041189;28;89513;-66
2022/05/09 12:49:27;;;;;;;2.57;0.80;;;25.20;38.00;;;;;;5036700;27;90449;-66
2022/05/09 12:51:57;;;;;;;1.03;0.67;;;25.20;38.00;;;;;;5043417;27;88478;-66
2022/05/09 12:54:26;;;;;;;1.27;0.90;;;25.30;38.00;;;;;;5055825;27;88482;-66
2022/05/09 12:56:56;;;;;;;2.07;1.07;;;25.30;38.00;;;;;;5040939;28;90601;-66
2022/05/09 12:59:24;;;;;;;1.70;0.90;;;25.30;37.90;;;;;;5039588;28;89842;-66
2022/05/09 13:01:54;;;;;;;0.77;0.77;;;25.40;38.00;;;;;;5041125;28;88307;-66
2022/05/09 13:04:46;;;;;;;2.13;0.90;;;25.40;38.00;;;;;;5039716;28;88586;-66
2022/05/09 13:07:14;;;;;;;1.50;0.90;;;25.40;37.90;;;;;;5037699;28;90218;-66
2022/05/09 13:09:47;;;;;;;3.70;0.80;;;25.50;37.90;;;;;;5039908;28;88745;-66
2022/05/09 13:12:22;;;;;;;2.40;0.97;;;25.50;38.00;;;;;;5040410;27;88406;-65
2022/05/09 13:14:52;;;;;;;3.50;0.73;;;25.50;37.90;;;;;;5042789;27;88528;-66
2022/05/09 13:17:23;;;;;;;1.20;1.00;;;25.50;37.80;;;;;;5039558;28;92385;-66